sensor_id;sensor_type;location;lat;lon;timestamp;pressure;altitude;pressure_sealevel;temperature;humidity
39309;BME280;26019;47.510;19.122;2022-09-12T00:03:14;100003.13;;;13.93;100.00
39309;BME280;26019;47.510;19.122;2022-09-12T00:13:17;99995.50;;;13.86;100.00
39309;BME280;26019;47.510;19.122;2022-09-12T00:23:19;100003.44;;;13.80;100.00
39309;BME280;26019;47.510;19.122;2022-09-12T00:33:25;100007.81;;;13.78;100.00
39309;BME280;26019;47.510;19.122;2022-09-12T00:53:31;100002.91;;;13.66;100.00
39309;BME280;26019;47.510;19.122;2022-09-12T01:03:35;100011.66;;;13.62;100.00
39309;BME280;26019;47.510;19.122;2022-09-12T01:13:39;100011.66;;;13.62;100.00
39309;BME280;26019;47.510;19.122;2022-09-12T01:24:01;99992.91;;;13.50;100.00
39309;BME280;26019;47.510;19.122;2022-09-12T01:34:26;100012.09;;;13.43;100.00
39309;BME280;26019;47.510;19.122;2022-09-12T01:44:51;100021.00;;;13.29;100.00
39309;BME280;26019;47.510;19.122;2022-09-12T02:05:34;99997.03;;;13.18;100.00
39309;BME280;26019;47.510;19.122;2022-09-12T02:15:42;100000.59;;;13.14;100.00
39309;BME280;26019;47.510;19.122;2022-09-12T02:25:49;100010.03;;;13.17;100.00
39309;BME280;26019;47.510;19.122;2022-09-12T02:46:32;100002.22;;;13.18;100.00
39309;BME280;26019;47.510;19.122;2022-09-12T02:56:40;99998.88;;;13.13;100.00
39309;BME280;26019;47.510;19.122;2022-09-12T03:27:26;100029.47;;;12.97;100.00
39309;BME280;26019;47.510;19.122;2022-09-12T03:37:29;100025.19;;;12.94;100.00
39309;BME280;26019;47.510;19.122;2022-09-12T03:47:31;100023.59;;;12.89;100.00
39309;BME280;26019;47.510;19.122;2022-09-12T03:57:34;100018.50;;;12.84;100.00
39309;BME280;26019;47.510;19.122;2022-09-12T04:07:36;100021.22;;;12.78;100.00
39309;BME280;26019;47.510;19.122;2022-09-12T04:17:44;100021.16;;;12.81;100.00
39309;BME280;26019;47.510;19.122;2022-09-12T04:27:47;100011.47;;;12.89;100.00
39309;BME280;26019;47.510;19.122;2022-09-12T04:37:49;100016.69;;;12.89;100.00
39309;BME280;26019;47.510;19.122;2022-09-12T04:47:52;100020.81;;;12.98;100.00
39309;BME280;26019;47.510;19.122;2022-09-12T04:57:55;100034.50;;;13.05;100.00
39309;BME280;26019;47.510;19.122;2022-09-12T05:07:56;100040.25;;;13.19;100.00
39309;BME280;26019;47.510;19.122;2022-09-12T05:17:58;100060.78;;;13.30;100.00
39309;BME280;26019;47.510;19.122;2022-09-12T05:28:00;100049.13;;;13.50;100.00
39309;BME280;26019;47.510;19.122;2022-09-12T05:38:02;100077.94;;;13.78;100.00
39309;BME280;26019;47.510;19.122;2022-09-12T05:48:04;100087.00;;;13.98;100.00
39309;BME280;26019;47.510;19.122;2022-09-12T05:58:06;100078.03;;;14.11;100.00
39309;BME280;26019;47.510;19.122;2022-09-12T06:08:07;100080.06;;;14.33;100.00
39309;BME280;26019;47.510;19.122;2022-09-12T06:18:12;100088.34;;;14.49;100.00
39309;BME280;26019;47.510;19.122;2022-09-12T06:28:13;100093.78;;;14.74;100.00
39309;BME280;26019;47.510;19.122;2022-09-12T06:38:15;100101.72;;;15.01;100.00
39309;BME280;26019;47.510;19.122;2022-09-12T06:48:17;100096.53;;;15.31;100.00
39309;BME280;26019;47.510;19.122;2022-09-12T06:58:19;100103.16;;;15.72;100.00
39309;BME280;26019;47.510;19.122;2022-09-12T07:08:21;100099.03;;;16.21;100.00
39309;BME280;26019;47.510;19.122;2022-09-12T07:18:23;100109.63;;;16.42;100.00
39309;BME280;26019;47.510;19.122;2022-09-12T07:28:30;100119.81;;;16.75;100.00
39309;BME280;26019;47.510;19.122;2022-09-12T07:38:32;100108.22;;;17.09;100.00
39309;BME280;26019;47.510;19.122;2022-09-12T07:48:34;100115.28;;;16.80;100.00
39309;BME280;26019;47.510;19.122;2022-09-12T07:58:38;100107.25;;;17.58;95.72
39309;BME280;26019;47.510;19.122;2022-09-12T08:09:07;100109.94;;;18.23;87.57
39309;BME280;26019;47.510;19.122;2022-09-12T08:19:09;100126.69;;;19.22;78.27
39309;BME280;26019;47.510;19.122;2022-09-12T08:29:10;100107.38;;;19.63;76.00
39309;BME280;26019;47.510;19.122;2022-09-12T08:39:14;100108.16;;;19.65;75.22
39309;BME280;26019;47.510;19.122;2022-09-12T08:59:41;100094.84;;;21.11;60.26
39309;BME280;26019;47.510;19.122;2022-09-12T09:30:24;100095.38;;;23.17;49.14
39309;BME280;26019;47.510;19.122;2022-09-12T09:50:51;100087.06;;;22.20;50.47
39309;BME280;26019;47.510;19.122;2022-09-12T10:00:58;100089.16;;;23.32;47.11
39309;BME280;26019;47.510;19.122;2022-09-12T10:11:27;100085.13;;;22.38;46.83
39309;BME280;26019;47.510;19.122;2022-09-12T10:31:49;100103.72;;;21.08;51.68
39309;BME280;26019;47.510;19.122;2022-09-12T10:41:54;100098.00;;;21.66;49.68
39309;BME280;26019;47.510;19.122;2022-09-12T10:51:57;100089.91;;;22.31;48.05
39309;BME280;26019;47.510;19.122;2022-09-12T11:02:27;100072.03;;;23.25;46.05
39309;BME280;26019;47.510;19.122;2022-09-12T11:33:42;100064.31;;;27.77;34.68
39309;BME280;26019;47.510;19.122;2022-09-12T12:04:43;100072.69;;;20.30;52.56
39309;BME280;26019;47.510;19.122;2022-09-12T12:14:52;100059.41;;;20.51;52.82
39309;BME280;26019;47.510;19.122;2022-09-12T12:25:22;100034.09;;;29.64;32.00
39309;BME280;26019;47.510;19.122;2022-09-12T12:35:44;100039.59;;;25.94;37.47
39309;BME280;26019;47.510;19.122;2022-09-12T12:46:04;100038.28;;;29.97;30.15
39309;BME280;26019;47.510;19.122;2022-09-12T12:56:28;100026.22;;;29.92;30.18
39309;BME280;26019;47.510;19.122;2022-09-12T13:06:41;100032.81;;;29.88;29.65
39309;BME280;26019;47.510;19.122;2022-09-12T13:16:53;100039.59;;;35.77;21.29
39309;BME280;26019;47.510;19.122;2022-09-12T13:26:56;100047.94;;;32.90;24.11
39309;BME280;26019;47.510;19.122;2022-09-12T13:47:36;100019.81;;;33.46;22.91
39309;BME280;26019;47.510;19.122;2022-09-12T13:57:42;100018.31;;;33.93;21.60
39309;BME280;26019;47.510;19.122;2022-09-12T14:07:50;99996.47;;;35.09;20.61
39309;BME280;26019;47.510;19.122;2022-09-12T14:18:00;100000.19;;;34.68;19.09
39309;BME280;26019;47.510;19.122;2022-09-12T14:28:04;99996.03;;;35.20;19.00
39309;BME280;26019;47.510;19.122;2022-09-12T14:48:18;99993.44;;;35.97;17.97
39309;BME280;26019;47.510;19.122;2022-09-12T14:58:26;99986.81;;;32.77;19.79
39309;BME280;26019;47.510;19.122;2022-09-12T15:08:30;99985.81;;;33.63;19.55
39309;BME280;26019;47.510;19.122;2022-09-12T15:18:34;99990.25;;;34.77;18.54
39309;BME280;26019;47.510;19.122;2022-09-12T15:28:49;99989.41;;;34.28;18.93
39309;BME280;26019;47.510;19.122;2022-09-12T15:38:51;99990.06;;;32.89;21.04
39309;BME280;26019;47.510;19.122;2022-09-12T15:48:54;99997.66;;;31.62;21.97
39309;BME280;26019;47.510;19.122;2022-09-12T15:58:56;99995.34;;;31.67;22.50
39309;BME280;26019;47.510;19.122;2022-09-12T16:09:03;100007.28;;;27.27;27.31
39309;BME280;26019;47.510;19.122;2022-09-12T16:19:05;99996.50;;;23.38;33.84
39309;BME280;26019;47.510;19.122;2022-09-12T16:29:11;100006.75;;;22.43;36.85
39309;BME280;26019;47.510;19.122;2022-09-12T16:39:14;100014.16;;;21.45;40.68
39309;BME280;26019;47.510;19.122;2022-09-12T16:49:16;100005.00;;;20.37;44.09
39309;BME280;26019;47.510;19.122;2022-09-12T16:59:18;99989.66;;;19.76;45.39
39309;BME280;26019;47.510;19.122;2022-09-12T17:09:20;99991.59;;;19.36;46.40
39309;BME280;26019;47.510;19.122;2022-09-12T17:19:25;100008.91;;;19.02;47.24
39309;BME280;26019;47.510;19.122;2022-09-12T17:29:27;100012.19;;;18.67;49.58
39309;BME280;26019;47.510;19.122;2022-09-12T17:39:36;100037.66;;;18.43;50.94
39309;BME280;26019;47.510;19.122;2022-09-12T17:49:39;100048.44;;;18.14;55.18
39309;BME280;26019;47.510;19.122;2022-09-12T17:59:41;100049.22;;;17.94;54.25
39309;BME280;26019;47.510;19.122;2022-09-12T18:09:43;100056.56;;;17.64;55.42
39309;BME280;26019;47.510;19.122;2022-09-12T18:19:50;100078.38;;;17.16;57.61
39309;BME280;26019;47.510;19.122;2022-09-12T18:29:54;100075.41;;;16.77;61.24
39309;BME280;26019;47.510;19.122;2022-09-12T18:40:16;100073.94;;;16.44;65.54
39309;BME280;26019;47.510;19.122;2022-09-12T18:50:18;100083.69;;;16.12;68.50
39309;BME280;26019;47.510;19.122;2022-09-12T19:00:20;100085.28;;;15.89;70.15
39309;BME280;26019;47.510;19.122;2022-09-12T19:10:24;100087.09;;;15.57;73.11
39309;BME280;26019;47.510;19.122;2022-09-12T19:20:26;100093.31;;;15.23;77.79
39309;BME280;26019;47.510;19.122;2022-09-12T19:30:29;100095.84;;;14.95;82.05
39309;BME280;26019;47.510;19.122;2022-09-12T19:40:35;100093.03;;;14.69;87.11
39309;BME280;26019;47.510;19.122;2022-09-12T19:50:38;100093.59;;;14.46;89.13
39309;BME280;26019;47.510;19.122;2022-09-12T20:01:19;100089.44;;;14.40;92.93
39309;BME280;26019;47.510;19.122;2022-09-12T20:11:22;100080.41;;;14.19;94.92
39309;BME280;26019;47.510;19.122;2022-09-12T20:21:27;100083.63;;;13.93;96.15
39309;BME280;26019;47.510;19.122;2022-09-12T20:31:34;100078.16;;;14.07;97.11
39309;BME280;26019;47.510;19.122;2022-09-12T20:41:36;100087.44;;;13.79;88.21
39309;BME280;26019;47.510;19.122;2022-09-12T20:51:41;100106.06;;;13.97;87.17
39309;BME280;26019;47.510;19.122;2022-09-12T21:01:43;100100.88;;;13.97;84.69
39309;BME280;26019;47.510;19.122;2022-09-12T21:11:46;100101.91;;;13.50;87.17
39309;BME280;26019;47.510;19.122;2022-09-12T21:21:48;100111.81;;;13.31;89.18
39309;BME280;26019;47.510;19.122;2022-09-12T21:31:51;100129.53;;;13.09;94.11
39309;BME280;26019;47.510;19.122;2022-09-12T21:41:55;100136.03;;;12.84;95.92
39309;BME280;26019;47.510;19.122;2022-09-12T21:52:12;100157.66;;;12.83;100.00
39309;BME280;26019;47.510;19.122;2022-09-12T22:02:13;100166.06;;;12.48;100.00
39309;BME280;26019;47.510;19.122;2022-09-12T22:12:17;100166.25;;;12.35;100.00
39309;BME280;26019;47.510;19.122;2022-09-12T22:22:18;100155.09;;;12.30;100.00
39309;BME280;26019;47.510;19.122;2022-09-12T22:32:39;100153.63;;;12.12;100.00
39309;BME280;26019;47.510;19.122;2022-09-12T22:42:43;100157.31;;;11.94;100.00
39309;BME280;26019;47.510;19.122;2022-09-12T22:52:44;100161.09;;;11.73;100.00
39309;BME280;26019;47.510;19.122;2022-09-12T23:02:48;100162.03;;;11.64;100.00
39309;BME280;26019;47.510;19.122;2022-09-12T23:12:51;100165.75;;;11.44;100.00
39309;BME280;26019;47.510;19.122;2022-09-12T23:22:54;100152.16;;;11.25;100.00
39309;BME280;26019;47.510;19.122;2022-09-12T23:32:55;100148.91;;;11.06;100.00
39309;BME280;26019;47.510;19.122;2022-09-12T23:43:19;100154.97;;;11.07;100.00
39309;BME280;26019;47.510;19.122;2022-09-12T23:53:28;100153.44;;;10.85;100.00
